This is the latest recevied weather packets stored in our database for station/object IW4CYE-7. If no packets are shown the sender has not sent any weather packets the latest 10 day(s).
| Time | Temp. | Humidity | Pressure | Rain* | Wind** | Luminosity | Snow |
|---|---|---|---|---|---|---|---|
| 1787978242 | 21.67° C | 95% | 1001.4 hPa | 0 mm | - | - | - |
| 1787977642 | 21.67° C | 95% | 1001.4 hPa | 0 mm | - | - | - |
| 1787977042 | 21.67° C | 95% | 1001.4 hPa | 0 mm | - | - | - |
| 1787976442 | 21.67° C | 94% | 1001.4 hPa | 0 mm | - | - | - |
| 1787975841 | 22.22° C | 93% | 1001.4 hPa | 0 mm | - | - | - |
| 1787975241 | 22.22° C | 93% | 1001.7 hPa | 0 mm | - | - | - |
| 1787974641 | 22.22° C | 93% | 1001.4 hPa | 0 mm | - | - | - |
| 1787974041 | 22.22° C | 92% | 1001 hPa | 0 mm | - | - | - |
| 1787973441 | 22.78° C | 92% | 1001 hPa | 0 mm | - | - | - |
| 1787972841 | 22.78° C | 91% | 1001 hPa | 0 mm | - | - | - |
| 1787972241 | 22.78° C | 91% | 1000.7 hPa | 0 mm | - | - | - |
| 1787971641 | 22.78° C | 91% | 1001 hPa | 0 mm | - | - | - |
| 1787971041 | 23.33° C | 90% | 1001 hPa | 0 mm | - | - | - |
| 1787970441 | 23.33° C | 90% | 1001 hPa | 0 mm | - | - | - |
| 1787969841 | 23.33° C | 88% | 1001 hPa | 0 mm | - | - | - |
| 1787969241 | 23.89° C | 87% | 1001 hPa | 0 mm | - | - | - |
| 1787968641 | 24.44° C | 85% | 1001 hPa | 0 mm | - | - | - |
| 1787968041 | 25.56° C | 79% | 1001 hPa | 0 mm | - | - | - |
| 1787967441 | 26.67° C | 76% | 1001 hPa | 0 mm | - | - | - |
| 1787966841 | 27.22° C | 73% | 1000.7 hPa | 0 mm | - | - | - |
| 1787966241 | 27.22° C | 72% | 1000.7 hPa | 0 mm | - | - | - |
| 1787965641 | 27.22° C | 73% | 1000.7 hPa | 0 mm | - | - | - |
| 1787965041 | 25.56° C | 80% | 1000.7 hPa | 0 mm | - | - | - |
| 1787964441 | 26.11° C | 79% | 1000.7 hPa | 0 mm | - | - | - |
| 1787963841 | 25.56° C | 80% | 1000.7 hPa | 0 mm | - | - | - |
* Rain latest hour (hover to see other rain measurements)
** Current wind speed in m/s (hover to see current wind gust speed)